Terminal Aerodrome Forecast
Issued by NWS Binghamton, NY

Home | Current Version | Previous Version | Text Only | Print | Product List | Glossary On
Versions: 1 2 3 4 5 6 7 8 9 10 11 12 13 14 15
000
FTUS41 KBGM 251130
TAFSYR
TAF
KSYR 251130Z 2512/2612 11004KT P6SM SCT070 OVC100
     FM251400 16009KT P6SM BKN120
     FM251700 23012G18KT P6SM SCT100 BKN200
     FM252300 22009KT P6SM BKN100 OVC200=

USA.gov is the U.S. government's official web portal to all federal, state and local government web resources and services.